sensor_id;sensor_type;location;lat;lon;timestamp;P1;durP1;ratioP1;P2;durP2;ratioP2
3667;SDS011;24099;47.102;15.440;2023-07-16T00:00:12;2.03;;;1.83;;
3667;SDS011;24099;47.102;15.440;2023-07-16T00:02:40;3.15;;;2.15;;
3667;SDS011;24099;47.102;15.440;2023-07-16T00:05:08;3.20;;;2.00;;
3667;SDS011;24099;47.102;15.440;2023-07-16T00:07:35;3.45;;;2.08;;
3667;SDS011;24099;47.102;15.440;2023-07-16T00:10:03;3.22;;;2.22;;
3667;SDS011;24099;47.102;15.440;2023-07-16T00:12:30;8.05;;;2.28;;
3667;SDS011;24099;47.102;15.440;2023-07-16T00:14:58;2.63;;;2.28;;
3667;SDS011;24099;47.102;15.440;2023-07-16T00:17:30;7.57;;;2.65;;
3667;SDS011;24099;47.102;15.440;2023-07-16T00:19:58;2.03;;;1.80;;
3667;SDS011;24099;47.102;15.440;2023-07-16T00:22:29;4.47;;;2.03;;
3667;SDS011;24099;47.102;15.440;2023-07-16T00:24:58;3.42;;;2.53;;
3667;SDS011;24099;47.102;15.440;2023-07-16T00:27:26;4.28;;;2.08;;
3667;SDS011;24099;47.102;15.440;2023-07-16T00:29:56;3.10;;;2.20;;
3667;SDS011;24099;47.102;15.440;2023-07-16T00:32:26;4.60;;;2.58;;
3667;SDS011;24099;47.102;15.440;2023-07-16T00:34:55;6.38;;;3.00;;
3667;SDS011;24099;47.102;15.440;2023-07-16T00:37:23;2.63;;;2.03;;
3667;SDS011;24099;47.102;15.440;2023-07-16T00:39:53;2.47;;;1.90;;
3667;SDS011;24099;47.102;15.440;2023-07-16T00:42:22;2.20;;;1.98;;
3667;SDS011;24099;47.102;15.440;2023-07-16T00:44:50;3.28;;;2.47;;
3667;SDS011;24099;47.102;15.440;2023-07-16T00:47:24;3.10;;;2.15;;
3667;SDS011;24099;47.102;15.440;2023-07-16T00:49:52;2.22;;;1.88;;
3667;SDS011;24099;47.102;15.440;2023-07-16T00:52:25;5.85;;;2.45;;
3667;SDS011;24099;47.102;15.440;2023-07-16T00:54:54;3.42;;;2.05;;
3667;SDS011;24099;47.102;15.440;2023-07-16T00:57:22;3.45;;;2.00;;
3667;SDS011;24099;47.102;15.440;2023-07-16T00:59:50;3.25;;;2.05;;
3667;SDS011;24099;47.102;15.440;2023-07-16T01:02:17;2.55;;;2.17;;
3667;SDS011;24099;47.102;15.440;2023-07-16T01:04:47;2.40;;;2.00;;
3667;SDS011;24099;47.102;15.440;2023-07-16T01:07:14;7.90;;;2.45;;
3667;SDS011;24099;47.102;15.440;2023-07-16T01:09:44;3.30;;;2.17;;
3667;SDS011;24099;47.102;15.440;2023-07-16T01:12:12;2.85;;;2.17;;
3667;SDS011;24099;47.102;15.440;2023-07-16T01:14:40;2.72;;;2.20;;
3667;SDS011;24099;47.102;15.440;2023-07-16T01:17:08;3.05;;;2.03;;
3667;SDS011;24099;47.102;15.440;2023-07-16T01:19:37;2.50;;;2.20;;
3667;SDS011;24099;47.102;15.440;2023-07-16T01:24:53;2.95;;;2.10;;
3667;SDS011;24099;47.102;15.440;2023-07-16T01:27:34;2.33;;;2.08;;
3667;SDS011;24099;47.102;15.440;2023-07-16T01:30:10;3.05;;;2.30;;
3667;SDS011;24099;47.102;15.440;2023-07-16T01:32:38;4.30;;;2.45;;
3667;SDS011;24099;47.102;15.440;2023-07-16T01:35:10;2.08;;;1.85;;
3667;SDS011;24099;47.102;15.440;2023-07-16T01:37:38;6.38;;;2.33;;
3667;SDS011;24099;47.102;15.440;2023-07-16T01:40:08;4.22;;;2.33;;
3667;SDS011;24099;47.102;15.440;2023-07-16T01:42:39;3.55;;;2.22;;
3667;SDS011;24099;47.102;15.440;2023-07-16T01:45:10;2.78;;;2.10;;
3667;SDS011;24099;47.102;15.440;2023-07-16T01:47:39;4.18;;;2.33;;
3667;SDS011;24099;47.102;15.440;2023-07-16T01:50:09;4.60;;;2.42;;
3667;SDS011;24099;47.102;15.440;2023-07-16T01:52:37;5.38;;;2.55;;
3667;SDS011;24099;47.102;15.440;2023-07-16T01:55:08;3.13;;;2.03;;
3667;SDS011;24099;47.102;15.440;2023-07-16T01:57:35;6.85;;;2.22;;
3667;SDS011;24099;47.102;15.440;2023-07-16T02:00:03;2.45;;;1.92;;
3667;SDS011;24099;47.102;15.440;2023-07-16T02:02:46;3.88;;;2.38;;
3667;SDS011;24099;47.102;15.440;2023-07-16T02:05:14;2.60;;;2.10;;
3667;SDS011;24099;47.102;15.440;2023-07-16T02:07:41;4.05;;;2.35;;
3667;SDS011;24099;47.102;15.440;2023-07-16T02:10:08;5.13;;;2.35;;
3667;SDS011;24099;47.102;15.440;2023-07-16T02:12:36;3.45;;;2.28;;
3667;SDS011;24099;47.102;15.440;2023-07-16T02:15:04;2.75;;;1.90;;
3667;SDS011;24099;47.102;15.440;2023-07-16T02:17:38;5.07;;;2.38;;
3667;SDS011;24099;47.102;15.440;2023-07-16T02:20:10;4.05;;;2.20;;
3667;SDS011;24099;47.102;15.440;2023-07-16T02:22:38;5.80;;;2.00;;
3667;SDS011;24099;47.102;15.440;2023-07-16T02:25:05;2.38;;;2.10;;
3667;SDS011;24099;47.102;15.440;2023-07-16T02:27:33;2.95;;;2.08;;
3667;SDS011;24099;47.102;15.440;2023-07-16T02:30:03;3.33;;;2.05;;
3667;SDS011;24099;47.102;15.440;2023-07-16T02:32:31;3.63;;;2.15;;
3667;SDS011;24099;47.102;15.440;2023-07-16T02:35:00;3.85;;;1.98;;
3667;SDS011;24099;47.102;15.440;2023-07-16T02:37:29;2.83;;;2.17;;
3667;SDS011;24099;47.102;15.440;2023-07-16T02:39:57;4.05;;;2.15;;
3667;SDS011;24099;47.102;15.440;2023-07-16T02:42:24;4.65;;;2.50;;
3667;SDS011;24099;47.102;15.440;2023-07-16T02:44:52;3.92;;;2.13;;
3667;SDS011;24099;47.102;15.440;2023-07-16T02:47:19;2.78;;;2.20;;
3667;SDS011;24099;47.102;15.440;2023-07-16T02:49:50;2.90;;;2.20;;
3667;SDS011;24099;47.102;15.440;2023-07-16T02:52:18;2.65;;;2.10;;
3667;SDS011;24099;47.102;15.440;2023-07-16T02:54:47;2.85;;;2.25;;
3667;SDS011;24099;47.102;15.440;2023-07-16T02:57:14;4.50;;;2.20;;
3667;SDS011;24099;47.102;15.440;2023-07-16T02:59:42;2.42;;;2.05;;
3667;SDS011;24099;47.102;15.440;2023-07-16T03:02:10;4.65;;;2.10;;
3667;SDS011;24099;47.102;15.440;2023-07-16T03:04:37;2.47;;;2.00;;
3667;SDS011;24099;47.102;15.440;2023-07-16T03:07:05;2.30;;;2.10;;
3667;SDS011;24099;47.102;15.440;2023-07-16T03:09:32;3.70;;;2.47;;
3667;SDS011;24099;47.102;15.440;2023-07-16T03:12:01;5.60;;;2.47;;
3667;SDS011;24099;47.102;15.440;2023-07-16T03:14:28;4.65;;;2.30;;
3667;SDS011;24099;47.102;15.440;2023-07-16T03:16:56;2.50;;;2.13;;
3667;SDS011;24099;47.102;15.440;2023-07-16T03:19:23;3.13;;;2.13;;
3667;SDS011;24099;47.102;15.440;2023-07-16T03:21:50;2.03;;;1.80;;
3667;SDS011;24099;47.102;15.440;2023-07-16T03:24:18;2.55;;;1.90;;
3667;SDS011;24099;47.102;15.440;2023-07-16T03:26:45;4.72;;;2.40;;
3667;SDS011;24099;47.102;15.440;2023-07-16T03:29:14;3.38;;;2.20;;
3667;SDS011;24099;47.102;15.440;2023-07-16T03:31:43;5.80;;;2.30;;
3667;SDS011;24099;47.102;15.440;2023-07-16T03:34:12;2.45;;;2.15;;
3667;SDS011;24099;47.102;15.440;2023-07-16T03:36:40;2.50;;;2.08;;
3667;SDS011;24099;47.102;15.440;2023-07-16T03:39:08;2.58;;;2.25;;
3667;SDS011;24099;47.102;15.440;2023-07-16T03:41:35;3.40;;;2.20;;
3667;SDS011;24099;47.102;15.440;2023-07-16T03:44:03;4.18;;;2.03;;
3667;SDS011;24099;47.102;15.440;2023-07-16T03:46:35;4.28;;;2.17;;
3667;SDS011;24099;47.102;15.440;2023-07-16T03:49:03;2.90;;;2.33;;
3667;SDS011;24099;47.102;15.440;2023-07-16T03:51:33;3.42;;;2.65;;
3667;SDS011;24099;47.102;15.440;2023-07-16T03:54:01;4.10;;;2.58;;
3667;SDS011;24099;47.102;15.440;2023-07-16T03:56:28;2.85;;;2.40;;
3667;SDS011;24099;47.102;15.440;2023-07-16T03:58:56;6.82;;;2.50;;
3667;SDS011;24099;47.102;15.440;2023-07-16T04:01:24;5.57;;;2.60;;
3667;SDS011;24099;47.102;15.440;2023-07-16T04:03:53;3.58;;;2.03;;
3667;SDS011;24099;47.102;15.440;2023-07-16T04:06:20;4.13;;;2.13;;
3667;SDS011;24099;47.102;15.440;2023-07-16T04:08:47;3.42;;;2.30;;
3667;SDS011;24099;47.102;15.440;2023-07-16T04:11:15;6.57;;;2.40;;
3667;SDS011;24099;47.102;15.440;2023-07-16T04:13:42;3.60;;;2.17;;
3667;SDS011;24099;47.102;15.440;2023-07-16T04:16:10;6.00;;;2.50;;
3667;SDS011;24099;47.102;15.440;2023-07-16T04:18:38;7.20;;;2.50;;
3667;SDS011;24099;47.102;15.440;2023-07-16T04:21:06;5.00;;;2.80;;
3667;SDS011;24099;47.102;15.440;2023-07-16T04:23:34;3.17;;;2.28;;
3667;SDS011;24099;47.102;15.440;2023-07-16T04:26:01;3.83;;;2.28;;
3667;SDS011;24099;47.102;15.440;2023-07-16T04:28:28;3.80;;;2.22;;
3667;SDS011;24099;47.102;15.440;2023-07-16T04:30:56;2.47;;;1.90;;
3667;SDS011;24099;47.102;15.440;2023-07-16T04:33:23;3.30;;;2.35;;
3667;SDS011;24099;47.102;15.440;2023-07-16T04:35:50;6.95;;;2.50;;
3667;SDS011;24099;47.102;15.440;2023-07-16T04:38:19;2.63;;;2.38;;
3667;SDS011;24099;47.102;15.440;2023-07-16T04:40:47;2.35;;;2.05;;
3667;SDS011;24099;47.102;15.440;2023-07-16T04:45:43;2.50;;;2.30;;
3667;SDS011;24099;47.102;15.440;2023-07-16T04:48:12;4.30;;;2.45;;
3667;SDS011;24099;47.102;15.440;2023-07-16T04:50:39;4.15;;;2.33;;
3667;SDS011;24099;47.102;15.440;2023-07-16T04:53:09;5.13;;;2.78;;
3667;SDS011;24099;47.102;15.440;2023-07-16T04:55:38;5.32;;;2.38;;
3667;SDS011;24099;47.102;15.440;2023-07-16T04:58:06;3.22;;;2.53;;
3667;SDS011;24099;47.102;15.440;2023-07-16T05:00:33;3.58;;;2.83;;
3667;SDS011;24099;47.102;15.440;2023-07-16T05:03:01;5.15;;;2.75;;
3667;SDS011;24099;47.102;15.440;2023-07-16T05:05:28;7.15;;;2.50;;
3667;SDS011;24099;47.102;15.440;2023-07-16T05:07:55;2.78;;;2.13;;
3667;SDS011;24099;47.102;15.440;2023-07-16T05:10:23;2.65;;;2.25;;
3667;SDS011;24099;47.102;15.440;2023-07-16T05:12:52;4.38;;;2.45;;
3667;SDS011;24099;47.102;15.440;2023-07-16T05:15:19;4.43;;;2.90;;
3667;SDS011;24099;47.102;15.440;2023-07-16T05:17:46;4.65;;;2.50;;
3667;SDS011;24099;47.102;15.440;2023-07-16T05:20:14;3.10;;;2.30;;
3667;SDS011;24099;47.102;15.440;2023-07-16T05:22:41;2.80;;;2.42;;
3667;SDS011;24099;47.102;15.440;2023-07-16T05:25:09;3.25;;;2.72;;
3667;SDS011;24099;47.102;15.440;2023-07-16T05:27:37;3.20;;;2.45;;
3667;SDS011;24099;47.102;15.440;2023-07-16T05:30:07;4.70;;;2.63;;
3667;SDS011;24099;47.102;15.440;2023-07-16T05:32:34;4.07;;;2.60;;
3667;SDS011;24099;47.102;15.440;2023-07-16T05:35:03;4.72;;;2.95;;
3667;SDS011;24099;47.102;15.440;2023-07-16T05:37:30;3.85;;;3.10;;
3667;SDS011;24099;47.102;15.440;2023-07-16T05:39:57;6.32;;;2.72;;
3667;SDS011;24099;47.102;15.440;2023-07-16T05:42:25;4.40;;;3.10;;
3667;SDS011;24099;47.102;15.440;2023-07-16T05:44:52;3.88;;;2.80;;
3667;SDS011;24099;47.102;15.440;2023-07-16T05:47:22;5.32;;;2.95;;
3667;SDS011;24099;47.102;15.440;2023-07-16T05:49:51;4.07;;;3.40;;
3667;SDS011;24099;47.102;15.440;2023-07-16T05:52:18;8.15;;;2.97;;
3667;SDS011;24099;47.102;15.440;2023-07-16T05:54:46;5.53;;;2.95;;
3667;SDS011;24099;47.102;15.440;2023-07-16T05:57:13;5.57;;;3.00;;
3667;SDS011;24099;47.102;15.440;2023-07-16T05:59:40;4.95;;;3.17;;
3667;SDS011;24099;47.102;15.440;2023-07-16T06:02:08;4.53;;;3.08;;
3667;SDS011;24099;47.102;15.440;2023-07-16T06:04:37;4.10;;;3.30;;
3667;SDS011;24099;47.102;15.440;2023-07-16T06:07:04;6.18;;;3.35;;
3667;SDS011;24099;47.102;15.440;2023-07-16T06:09:32;3.33;;;3.03;;
3667;SDS011;24099;47.102;15.440;2023-07-16T06:11:59;5.93;;;3.25;;
3667;SDS011;24099;47.102;15.440;2023-07-16T06:14:27;6.53;;;3.28;;
3667;SDS011;24099;47.102;15.440;2023-07-16T06:19:21;5.45;;;2.97;;
3667;SDS011;24099;47.102;15.440;2023-07-16T06:21:50;4.15;;;3.15;;
3667;SDS011;24099;47.102;15.440;2023-07-16T06:24:18;4.22;;;2.78;;
3667;SDS011;24099;47.102;15.440;2023-07-16T06:29:20;6.20;;;3.45;;
3667;SDS011;24099;47.102;15.440;2023-07-16T06:31:54;5.43;;;3.47;;
3667;SDS011;24099;47.102;15.440;2023-07-16T06:34:22;7.13;;;3.67;;
3667;SDS011;24099;47.102;15.440;2023-07-16T06:36:51;4.75;;;2.97;;
3667;SDS011;24099;47.102;15.440;2023-07-16T06:39:22;6.05;;;3.70;;
3667;SDS011;24099;47.102;15.440;2023-07-16T06:41:49;6.53;;;3.42;;
3667;SDS011;24099;47.102;15.440;2023-07-16T06:44:17;4.72;;;3.17;;
3667;SDS011;24099;47.102;15.440;2023-07-16T06:46:44;4.78;;;3.15;;
3667;SDS011;24099;47.102;15.440;2023-07-16T06:49:11;4.28;;;3.10;;
3667;SDS011;24099;47.102;15.440;2023-07-16T06:51:39;5.60;;;2.88;;
3667;SDS011;24099;47.102;15.440;2023-07-16T06:54:08;5.13;;;3.10;;
3667;SDS011;24099;47.102;15.440;2023-07-16T06:56:38;4.75;;;3.15;;
3667;SDS011;24099;47.102;15.440;2023-07-16T06:59:07;3.85;;;2.83;;
3667;SDS011;24099;47.102;15.440;2023-07-16T07:01:37;7.10;;;3.05;;
3667;SDS011;24099;47.102;15.440;2023-07-16T07:04:05;2.63;;;2.33;;
3667;SDS011;24099;47.102;15.440;2023-07-16T07:06:33;3.03;;;2.30;;
3667;SDS011;24099;47.102;15.440;2023-07-16T07:09:00;4.45;;;2.80;;
3667;SDS011;24099;47.102;15.440;2023-07-16T07:11:29;5.22;;;2.25;;
3667;SDS011;24099;47.102;15.440;2023-07-16T07:13:56;2.70;;;2.10;;
3667;SDS011;24099;47.102;15.440;2023-07-16T07:16:24;6.38;;;2.20;;
3667;SDS011;24099;47.102;15.440;2023-07-16T07:18:54;3.10;;;2.08;;
3667;SDS011;24099;47.102;15.440;2023-07-16T07:21:21;2.78;;;1.80;;
3667;SDS011;24099;47.102;15.440;2023-07-16T07:23:49;2.90;;;2.00;;
3667;SDS011;24099;47.102;15.440;2023-07-16T07:26:16;1.65;;;1.55;;
3667;SDS011;24099;47.102;15.440;2023-07-16T07:28:45;2.03;;;1.35;;
3667;SDS011;24099;47.102;15.440;2023-07-16T07:31:13;2.17;;;1.55;;
3667;SDS011;24099;47.102;15.440;2023-07-16T07:33:40;2.47;;;1.80;;
3667;SDS011;24099;47.102;15.440;2023-07-16T07:36:08;2.97;;;1.60;;
3667;SDS011;24099;47.102;15.440;2023-07-16T07:38:35;1.98;;;1.45;;
3667;SDS011;24099;47.102;15.440;2023-07-16T07:41:04;2.53;;;1.60;;
3667;SDS011;24099;47.102;15.440;2023-07-16T07:43:32;2.15;;;1.50;;
3667;SDS011;24099;47.102;15.440;2023-07-16T07:46:00;3.47;;;1.70;;
3667;SDS011;24099;47.102;15.440;2023-07-16T07:48:28;1.63;;;1.52;;
3667;SDS011;24099;47.102;15.440;2023-07-16T07:50:55;1.58;;;1.42;;
3667;SDS011;24099;47.102;15.440;2023-07-16T07:53:23;4.05;;;1.60;;
3667;SDS011;24099;47.102;15.440;2023-07-16T07:55:50;1.92;;;1.45;;
3667;SDS011;24099;47.102;15.440;2023-07-16T07:58:18;1.52;;;1.42;;
3667;SDS011;24099;47.102;15.440;2023-07-16T08:00:48;2.38;;;1.63;;
3667;SDS011;24099;47.102;15.440;2023-07-16T08:03:19;2.60;;;1.50;;
3667;SDS011;24099;47.102;15.440;2023-07-16T08:05:48;1.60;;;1.50;;
3667;SDS011;24099;47.102;15.440;2023-07-16T08:08:15;2.10;;;1.58;;
3667;SDS011;24099;47.102;15.440;2023-07-16T08:10:43;2.72;;;1.35;;
3667;SDS011;24099;47.102;15.440;2023-07-16T08:13:11;1.75;;;1.50;;
3667;SDS011;24099;47.102;15.440;2023-07-16T08:15:39;2.22;;;1.95;;
3667;SDS011;24099;47.102;15.440;2023-07-16T08:18:06;2.53;;;1.60;;
3667;SDS011;24099;47.102;15.440;2023-07-16T08:20:37;1.77;;;1.60;;
3667;SDS011;24099;47.102;15.440;2023-07-16T08:23:06;2.42;;;1.60;;
3667;SDS011;24099;47.102;15.440;2023-07-16T08:25:33;2.25;;;1.52;;
3667;SDS011;24099;47.102;15.440;2023-07-16T08:28:01;2.60;;;1.30;;
3667;SDS011;24099;47.102;15.440;2023-07-16T08:30:29;2.97;;;1.88;;
3667;SDS011;24099;47.102;15.440;2023-07-16T08:32:56;1.60;;;1.50;;
3667;SDS011;24099;47.102;15.440;2023-07-16T08:35:23;1.55;;;1.45;;
3667;SDS011;24099;47.102;15.440;2023-07-16T08:37:52;2.25;;;1.60;;
3667;SDS011;24099;47.102;15.440;2023-07-16T08:40:20;2.13;;;1.40;;
3667;SDS011;24099;47.102;15.440;2023-07-16T08:42:47;1.70;;;1.60;;
3667;SDS011;24099;47.102;15.440;2023-07-16T08:45:16;4.28;;;1.60;;
3667;SDS011;24099;47.102;15.440;2023-07-16T08:47:44;2.55;;;1.65;;
3667;SDS011;24099;47.102;15.440;2023-07-16T08:50:12;5.97;;;1.40;;
3667;SDS011;24099;47.102;15.440;2023-07-16T08:52:40;1.63;;;1.52;;
3667;SDS011;24099;47.102;15.440;2023-07-16T08:55:09;1.42;;;1.33;;
3667;SDS011;24099;47.102;15.440;2023-07-16T08:57:39;2.03;;;1.50;;
3667;SDS011;24099;47.102;15.440;2023-07-16T09:00:07;2.10;;;1.70;;
3667;SDS011;24099;47.102;15.440;2023-07-16T09:02:35;1.98;;;1.40;;
3667;SDS011;24099;47.102;15.440;2023-07-16T09:05:03;2.55;;;1.70;;
3667;SDS011;24099;47.102;15.440;2023-07-16T09:07:31;4.65;;;1.52;;
3667;SDS011;24099;47.102;15.440;2023-07-16T09:10:01;1.70;;;1.50;;
3667;SDS011;24099;47.102;15.440;2023-07-16T09:12:30;3.40;;;1.40;;
3667;SDS011;24099;47.102;15.440;2023-07-16T09:14:57;1.67;;;1.45;;
3667;SDS011;24099;47.102;15.440;2023-07-16T09:17:25;2.67;;;1.33;;
3667;SDS011;24099;47.102;15.440;2023-07-16T09:19:52;2.38;;;1.40;;
3667;SDS011;24099;47.102;15.440;2023-07-16T09:22:20;1.45;;;1.35;;
3667;SDS011;24099;47.102;15.440;2023-07-16T09:24:47;1.73;;;1.50;;
3667;SDS011;24099;47.102;15.440;2023-07-16T09:27:15;1.55;;;1.45;;
3667;SDS011;24099;47.102;15.440;2023-07-16T09:29:44;1.95;;;1.30;;
3667;SDS011;24099;47.102;15.440;2023-07-16T09:32:11;2.75;;;1.67;;
3667;SDS011;24099;47.102;15.440;2023-07-16T09:34:40;1.70;;;1.40;;
3667;SDS011;24099;47.102;15.440;2023-07-16T09:37:07;2.25;;;1.58;;
3667;SDS011;24099;47.102;15.440;2023-07-16T09:39:35;1.70;;;1.60;;
3667;SDS011;24099;47.102;15.440;2023-07-16T09:42:03;1.88;;;1.50;;
3667;SDS011;24099;47.102;15.440;2023-07-16T09:44:30;2.88;;;1.90;;
3667;SDS011;24099;47.102;15.440;2023-07-16T09:46:59;2.67;;;1.63;;
3667;SDS011;24099;47.102;15.440;2023-07-16T09:49:27;2.92;;;1.77;;
3667;SDS011;24099;47.102;15.440;2023-07-16T09:51:56;4.00;;;1.83;;
3667;SDS011;24099;47.102;15.440;2023-07-16T09:54:24;1.75;;;1.60;;
3667;SDS011;24099;47.102;15.440;2023-07-16T09:56:55;1.73;;;1.63;;
3667;SDS011;24099;47.102;15.440;2023-07-16T09:59:24;1.52;;;1.42;;
3667;SDS011;24099;47.102;15.440;2023-07-16T10:01:54;1.65;;;1.40;;
3667;SDS011;24099;47.102;15.440;2023-07-16T10:04:23;1.58;;;1.42;;
3667;SDS011;24099;47.102;15.440;2023-07-16T10:06:52;1.40;;;1.30;;
3667;SDS011;24099;47.102;15.440;2023-07-16T10:09:32;2.20;;;1.60;;
3667;SDS011;24099;47.102;15.440;2023-07-16T10:12:13;2.55;;;1.70;;
3667;SDS011;24099;47.102;15.440;2023-07-16T10:14:41;1.73;;;1.60;;
3667;SDS011;24099;47.102;15.440;2023-07-16T10:17:12;1.65;;;1.55;;
3667;SDS011;24099;47.102;15.440;2023-07-16T10:19:51;2.25;;;1.50;;
3667;SDS011;24099;47.102;15.440;2023-07-16T10:22:30;5.13;;;1.50;;
3667;SDS011;24099;47.102;15.440;2023-07-16T10:24:58;4.18;;;1.90;;
3667;SDS011;24099;47.102;15.440;2023-07-16T10:27:27;2.63;;;1.30;;
3667;SDS011;24099;47.102;15.440;2023-07-16T10:29:56;3.83;;;1.52;;
3667;SDS011;24099;47.102;15.440;2023-07-16T10:32:25;3.45;;;1.65;;
3667;SDS011;24099;47.102;15.440;2023-07-16T10:34:55;1.60;;;1.50;;
3667;SDS011;24099;47.102;15.440;2023-07-16T10:37:22;1.48;;;1.38;;
3667;SDS011;24099;47.102;15.440;2023-07-16T10:39:51;1.88;;;1.60;;
3667;SDS011;24099;47.102;15.440;2023-07-16T10:42:19;1.95;;;1.70;;
3667;SDS011;24099;47.102;15.440;2023-07-16T10:44:48;1.55;;;1.35;;
3667;SDS011;24099;47.102;15.440;2023-07-16T10:47:21;2.25;;;1.48;;
3667;SDS011;24099;47.102;15.440;2023-07-16T10:49:49;2.25;;;1.60;;
3667;SDS011;24099;47.102;15.440;2023-07-16T10:52:23;1.50;;;1.40;;
3667;SDS011;24099;47.102;15.440;2023-07-16T10:54:51;1.98;;;1.50;;
3667;SDS011;24099;47.102;15.440;2023-07-16T10:57:19;1.88;;;1.65;;
3667;SDS011;24099;47.102;15.440;2023-07-16T10:59:48;2.70;;;1.58;;
3667;SDS011;24099;47.102;15.440;2023-07-16T11:02:17;3.33;;;1.65;;
3667;SDS011;24099;47.102;15.440;2023-07-16T11:04:45;1.50;;;1.40;;
3667;SDS011;24099;47.102;15.440;2023-07-16T11:07:13;1.63;;;1.38;;
3667;SDS011;24099;47.102;15.440;2023-07-16T11:09:42;1.45;;;1.35;;
3667;SDS011;24099;47.102;15.440;2023-07-16T11:12:10;2.05;;;1.50;;
3667;SDS011;24099;47.102;15.440;2023-07-16T11:14:46;1.92;;;1.60;;
3667;SDS011;24099;47.102;15.440;2023-07-16T11:17:14;3.25;;;1.35;;
3667;SDS011;24099;47.102;15.440;2023-07-16T11:19:44;1.85;;;1.50;;
3667;SDS011;24099;47.102;15.440;2023-07-16T11:22:11;1.48;;;1.38;;
3667;SDS011;24099;47.102;15.440;2023-07-16T11:24:40;2.00;;;1.80;;
3667;SDS011;24099;47.102;15.440;2023-07-16T11:27:14;2.88;;;1.77;;
3667;SDS011;24099;47.102;15.440;2023-07-16T11:29:45;1.50;;;1.40;;
3667;SDS011;24099;47.102;15.440;2023-07-16T11:32:13;3.05;;;1.65;;
3667;SDS011;24099;47.102;15.440;2023-07-16T11:34:53;3.10;;;1.83;;
3667;SDS011;24099;47.102;15.440;2023-07-16T11:37:22;1.83;;;1.65;;
3667;SDS011;24099;47.102;15.440;2023-07-16T11:39:54;1.50;;;1.40;;
3667;SDS011;24099;47.102;15.440;2023-07-16T11:42:27;3.33;;;1.48;;
3667;SDS011;24099;47.102;15.440;2023-07-16T11:44:55;1.60;;;1.50;;
3667;SDS011;24099;47.102;15.440;2023-07-16T11:47:23;2.33;;;1.63;;
3667;SDS011;24099;47.102;15.440;2023-07-16T11:49:50;1.77;;;1.50;;
3667;SDS011;24099;47.102;15.440;2023-07-16T11:52:18;2.35;;;1.85;;
3667;SDS011;24099;47.102;15.440;2023-07-16T11:54:47;1.88;;;1.40;;
3667;SDS011;24099;47.102;15.440;2023-07-16T11:57:14;1.50;;;1.40;;
3667;SDS011;24099;47.102;15.440;2023-07-16T11:59:44;2.50;;;1.65;;
3667;SDS011;24099;47.102;15.440;2023-07-16T12:02:11;2.15;;;1.60;;
3667;SDS011;24099;47.102;15.440;2023-07-16T12:04:39;2.20;;;1.63;;
3667;SDS011;24099;47.102;15.440;2023-07-16T12:07:06;2.38;;;1.73;;
3667;SDS011;24099;47.102;15.440;2023-07-16T12:09:34;1.65;;;1.50;;
3667;SDS011;24099;47.102;15.440;2023-07-16T12:12:01;1.75;;;1.60;;
3667;SDS011;24099;47.102;15.440;2023-07-16T12:14:29;1.60;;;1.50;;
3667;SDS011;24099;47.102;15.440;2023-07-16T12:16:59;1.80;;;1.70;;
3667;SDS011;24099;47.102;15.440;2023-07-16T12:19:26;2.28;;;1.77;;
3667;SDS011;24099;47.102;15.440;2023-07-16T12:21:54;1.98;;;1.77;;
3667;SDS011;24099;47.102;15.440;2023-07-16T12:24:22;2.08;;;1.52;;
3667;SDS011;24099;47.102;15.440;2023-07-16T12:26:49;1.48;;;1.30;;
3667;SDS011;24099;47.102;15.440;2023-07-16T12:29:17;2.80;;;1.65;;
3667;SDS011;24099;47.102;15.440;2023-07-16T12:31:44;2.25;;;1.70;;
3667;SDS011;24099;47.102;15.440;2023-07-16T12:34:13;1.90;;;1.70;;
3667;SDS011;24099;47.102;15.440;2023-07-16T12:36:41;1.70;;;1.60;;
3667;SDS011;24099;47.102;15.440;2023-07-16T12:39:08;4.53;;;1.73;;
3667;SDS011;24099;47.102;15.440;2023-07-16T12:41:45;1.60;;;1.50;;
3667;SDS011;24099;47.102;15.440;2023-07-16T12:44:13;2.10;;;1.70;;
3667;SDS011;24099;47.102;15.440;2023-07-16T12:46:40;4.25;;;1.80;;
3667;SDS011;24099;47.102;15.440;2023-07-16T12:49:07;3.63;;;1.77;;
3667;SDS011;24099;47.102;15.440;2023-07-16T12:51:37;5.20;;;1.80;;
3667;SDS011;24099;47.102;15.440;2023-07-16T12:54:05;2.28;;;1.50;;
3667;SDS011;24099;47.102;15.440;2023-07-16T12:56:32;1.60;;;1.50;;
3667;SDS011;24099;47.102;15.440;2023-07-16T12:59:00;4.55;;;1.52;;
3667;SDS011;24099;47.102;15.440;2023-07-16T13:01:27;1.90;;;1.55;;
3667;SDS011;24099;47.102;15.440;2023-07-16T13:03:55;1.75;;;1.60;;
3667;SDS011;24099;47.102;15.440;2023-07-16T13:06:23;1.58;;;1.48;;
3667;SDS011;24099;47.102;15.440;2023-07-16T13:08:55;1.92;;;1.70;;
3667;SDS011;24099;47.102;15.440;2023-07-16T13:11:23;2.45;;;1.85;;
3667;SDS011;24099;47.102;15.440;2023-07-16T13:13:51;1.95;;;1.58;;
3667;SDS011;24099;47.102;15.440;2023-07-16T13:16:18;2.40;;;1.60;;
3667;SDS011;24099;47.102;15.440;2023-07-16T13:18:46;2.15;;;1.50;;
3667;SDS011;24099;47.102;15.440;2023-07-16T13:21:16;1.80;;;1.60;;
3667;SDS011;24099;47.102;15.440;2023-07-16T13:23:44;2.08;;;1.88;;
3667;SDS011;24099;47.102;15.440;2023-07-16T13:26:12;2.60;;;2.00;;
3667;SDS011;24099;47.102;15.440;2023-07-16T13:28:41;2.17;;;1.80;;
3667;SDS011;24099;47.102;15.440;2023-07-16T13:31:09;2.47;;;1.80;;
3667;SDS011;24099;47.102;15.440;2023-07-16T13:33:37;2.50;;;1.80;;
3667;SDS011;24099;47.102;15.440;2023-07-16T13:36:05;4.45;;;1.83;;
3667;SDS011;24099;47.102;15.440;2023-07-16T13:38:32;2.67;;;1.77;;
3667;SDS011;24099;47.102;15.440;2023-07-16T13:40:59;2.80;;;1.75;;
3667;SDS011;24099;47.102;15.440;2023-07-16T13:43:28;2.72;;;1.95;;
3667;SDS011;24099;47.102;15.440;2023-07-16T13:45:58;1.63;;;1.52;;
3667;SDS011;24099;47.102;15.440;2023-07-16T13:48:25;3.80;;;1.88;;
3667;SDS011;24099;47.102;15.440;2023-07-16T13:50:53;1.98;;;1.88;;
3667;SDS011;24099;47.102;15.440;2023-07-16T13:53:21;1.83;;;1.70;;
3667;SDS011;24099;47.102;15.440;2023-07-16T13:55:48;4.72;;;1.50;;
3667;SDS011;24099;47.102;15.440;2023-07-16T13:58:18;2.15;;;1.70;;
3667;SDS011;24099;47.102;15.440;2023-07-16T14:00:47;1.80;;;1.70;;
3667;SDS011;24099;47.102;15.440;2023-07-16T14:03:15;4.20;;;2.08;;
3667;SDS011;24099;47.102;15.440;2023-07-16T14:05:42;1.70;;;1.60;;
3667;SDS011;24099;47.102;15.440;2023-07-16T14:08:10;2.55;;;1.60;;
3667;SDS011;24099;47.102;15.440;2023-07-16T14:10:37;2.13;;;1.80;;
3667;SDS011;24099;47.102;15.440;2023-07-16T14:13:05;1.63;;;1.52;;
3667;SDS011;24099;47.102;15.440;2023-07-16T14:15:32;2.25;;;1.80;;
3667;SDS011;24099;47.102;15.440;2023-07-16T14:18:01;2.13;;;1.92;;
3667;SDS011;24099;47.102;15.440;2023-07-16T14:20:28;2.25;;;2.05;;
3667;SDS011;24099;47.102;15.440;2023-07-16T14:22:56;2.90;;;2.10;;
3667;SDS011;24099;47.102;15.440;2023-07-16T14:25:23;3.88;;;1.83;;
3667;SDS011;24099;47.102;15.440;2023-07-16T14:27:51;3.30;;;1.65;;
3667;SDS011;24099;47.102;15.440;2023-07-16T14:30:18;1.90;;;1.65;;
3667;SDS011;24099;47.102;15.440;2023-07-16T14:32:46;2.70;;;2.10;;
3667;SDS011;24099;47.102;15.440;2023-07-16T14:35:15;2.88;;;2.08;;
3667;SDS011;24099;47.102;15.440;2023-07-16T14:37:42;2.25;;;1.70;;
3667;SDS011;24099;47.102;15.440;2023-07-16T14:40:10;2.10;;;1.90;;
3667;SDS011;24099;47.102;15.440;2023-07-16T14:42:38;2.38;;;1.92;;
3667;SDS011;24099;47.102;15.440;2023-07-16T14:45:06;4.70;;;1.80;;
3667;SDS011;24099;47.102;15.440;2023-07-16T14:47:34;2.75;;;1.95;;
3667;SDS011;24099;47.102;15.440;2023-07-16T14:50:01;7.13;;;1.88;;
3667;SDS011;24099;47.102;15.440;2023-07-16T14:52:30;2.85;;;2.10;;
3667;SDS011;24099;47.102;15.440;2023-07-16T14:54:57;2.50;;;2.15;;
3667;SDS011;24099;47.102;15.440;2023-07-16T14:57:25;3.13;;;1.95;;
3667;SDS011;24099;47.102;15.440;2023-07-16T14:59:52;2.45;;;2.00;;
3667;SDS011;24099;47.102;15.440;2023-07-16T15:02:20;2.75;;;2.10;;
3667;SDS011;24099;47.102;15.440;2023-07-16T15:04:47;2.22;;;2.03;;